sensor_id;sensor_type;location;lat;lon;timestamp;temperature;humidity
38428;DHT22;24211;49.980;19.776;2023-11-21T00:00:01;9.60;99.90
38428;DHT22;24211;49.980;19.776;2023-11-21T00:02:58;9.60;99.90
38428;DHT22;24211;49.980;19.776;2023-11-21T00:05:26;9.60;99.90
38428;DHT22;24211;49.980;19.776;2023-11-21T00:07:53;9.60;99.90
38428;DHT22;24211;49.980;19.776;2023-11-21T00:10:21;9.70;99.90
38428;DHT22;24211;49.980;19.776;2023-11-21T00:12:48;9.70;99.90
38428;DHT22;24211;49.980;19.776;2023-11-21T00:15:16;9.80;99.90
38428;DHT22;24211;49.980;19.776;2023-11-21T00:17:53;9.70;99.90
38428;DHT22;24211;49.980;19.776;2023-11-21T00:20:21;9.80;99.90
38428;DHT22;24211;49.980;19.776;2023-11-21T00:22:49;9.80;99.90
38428;DHT22;24211;49.980;19.776;2023-11-21T00:25:16;9.80;99.90
38428;DHT22;24211;49.980;19.776;2023-11-21T00:27:48;9.80;99.90
38428;DHT22;24211;49.980;19.776;2023-11-21T00:30:23;9.80;99.90
38428;DHT22;24211;49.980;19.776;2023-11-21T00:32:50;9.80;99.90
38428;DHT22;24211;49.980;19.776;2023-11-21T00:35:19;9.80;99.90
38428;DHT22;24211;49.980;19.776;2023-11-21T00:37:46;9.80;99.90
38428;DHT22;24211;49.980;19.776;2023-11-21T00:40:14;9.80;99.90
38428;DHT22;24211;49.980;19.776;2023-11-21T00:42:43;9.80;99.90
38428;DHT22;24211;49.980;19.776;2023-11-21T00:45:12;9.80;99.90
38428;DHT22;24211;49.980;19.776;2023-11-21T00:47:44;9.80;99.90
38428;DHT22;24211;49.980;19.776;2023-11-21T00:50:11;9.80;99.90
38428;DHT22;24211;49.980;19.776;2023-11-21T00:52:38;9.80;99.90
38428;DHT22;24211;49.980;19.776;2023-11-21T00:55:06;9.80;99.90
38428;DHT22;24211;49.980;19.776;2023-11-21T00:57:35;9.70;99.90
38428;DHT22;24211;49.980;19.776;2023-11-21T01:00:03;9.60;99.90
38428;DHT22;24211;49.980;19.776;2023-11-21T01:02:47;9.60;99.90
38428;DHT22;24211;49.980;19.776;2023-11-21T01:05:15;9.60;99.90
38428;DHT22;24211;49.980;19.776;2023-11-21T01:07:58;9.50;99.90
38428;DHT22;24211;49.980;19.776;2023-11-21T01:10:33;9.60;99.90
38428;DHT22;24211;49.980;19.776;2023-11-21T01:13:01;9.60;99.90
38428;DHT22;24211;49.980;19.776;2023-11-21T01:15:32;9.60;99.90
38428;DHT22;24211;49.980;19.776;2023-11-21T01:18:00;9.70;99.90
38428;DHT22;24211;49.980;19.776;2023-11-21T01:20:29;9.70;99.90
38428;DHT22;24211;49.980;19.776;2023-11-21T01:22:57;9.70;99.90
38428;DHT22;24211;49.980;19.776;2023-11-21T01:25:24;9.70;99.90
38428;DHT22;24211;49.980;19.776;2023-11-21T01:27:53;9.70;99.90
38428;DHT22;24211;49.980;19.776;2023-11-21T01:30:30;9.70;99.90
38428;DHT22;24211;49.980;19.776;2023-11-21T01:32:59;9.70;99.90
38428;DHT22;24211;49.980;19.776;2023-11-21T01:35:27;9.70;99.90
38428;DHT22;24211;49.980;19.776;2023-11-21T01:37:57;9.70;99.90
38428;DHT22;24211;49.980;19.776;2023-11-21T01:40:24;9.70;99.90
38428;DHT22;24211;49.980;19.776;2023-11-21T01:42:57;9.60;99.90
38428;DHT22;24211;49.980;19.776;2023-11-21T01:45:25;9.70;99.90
38428;DHT22;24211;49.980;19.776;2023-11-21T01:47:54;9.70;99.90
38428;DHT22;24211;49.980;19.776;2023-11-21T01:50:27;9.70;99.90
38428;DHT22;24211;49.980;19.776;2023-11-21T01:53:02;9.70;99.90
38428;DHT22;24211;49.980;19.776;2023-11-21T01:55:38;9.60;99.90
38428;DHT22;24211;49.980;19.776;2023-11-21T01:58:14;9.60;99.90
38428;DHT22;24211;49.980;19.776;2023-11-21T02:00:51;9.60;99.90
38428;DHT22;24211;49.980;19.776;2023-11-21T02:03:20;9.60;99.90
38428;DHT22;24211;49.980;19.776;2023-11-21T02:05:48;9.50;99.90
38428;DHT22;24211;49.980;19.776;2023-11-21T02:08:24;9.50;99.90
38428;DHT22;24211;49.980;19.776;2023-11-21T02:10:52;9.50;99.90
38428;DHT22;24211;49.980;19.776;2023-11-21T02:13:19;9.50;99.90
38428;DHT22;24211;49.980;19.776;2023-11-21T02:15:46;9.50;99.90
38428;DHT22;24211;49.980;19.776;2023-11-21T02:18:18;9.50;99.90
38428;DHT22;24211;49.980;19.776;2023-11-21T02:20:56;9.50;99.90
38428;DHT22;24211;49.980;19.776;2023-11-21T02:23:24;9.50;99.90
38428;DHT22;24211;49.980;19.776;2023-11-21T02:26:00;9.50;99.90
38428;DHT22;24211;49.980;19.776;2023-11-21T02:28:40;9.60;99.90
38428;DHT22;24211;49.980;19.776;2023-11-21T02:31:52;9.50;99.90
38428;DHT22;24211;49.980;19.776;2023-11-21T02:34:24;9.50;99.90
38428;DHT22;24211;49.980;19.776;2023-11-21T02:36:55;9.50;99.90
38428;DHT22;24211;49.980;19.776;2023-11-21T02:39:22;9.50;99.90
38428;DHT22;24211;49.980;19.776;2023-11-21T02:41:52;9.50;99.90
38428;DHT22;24211;49.980;19.776;2023-11-21T02:44:24;9.50;99.90
38428;DHT22;24211;49.980;19.776;2023-11-21T02:46:51;9.50;99.90
38428;DHT22;24211;49.980;19.776;2023-11-21T02:49:23;9.50;99.90
38428;DHT22;24211;49.980;19.776;2023-11-21T02:51:51;9.40;99.90
38428;DHT22;24211;49.980;19.776;2023-11-21T02:54:19;9.40;99.90
38428;DHT22;24211;49.980;19.776;2023-11-21T02:56:46;9.40;99.90
38428;DHT22;24211;49.980;19.776;2023-11-21T02:59:13;9.40;99.90
38428;DHT22;24211;49.980;19.776;2023-11-21T03:01:45;9.40;99.90
38428;DHT22;24211;49.980;19.776;2023-11-21T03:04:19;9.30;99.90
38428;DHT22;24211;49.980;19.776;2023-11-21T03:06:46;9.30;99.90
38428;DHT22;24211;49.980;19.776;2023-11-21T03:09:19;9.30;99.90
38428;DHT22;24211;49.980;19.776;2023-11-21T03:11:47;9.30;99.90
38428;DHT22;24211;49.980;19.776;2023-11-21T03:14:19;9.30;99.90
38428;DHT22;24211;49.980;19.776;2023-11-21T03:16:56;9.30;99.90
38428;DHT22;24211;49.980;19.776;2023-11-21T03:19:24;9.30;99.90
38428;DHT22;24211;49.980;19.776;2023-11-21T03:21:51;9.30;99.90
38428;DHT22;24211;49.980;19.776;2023-11-21T03:24:26;9.30;99.90
38428;DHT22;24211;49.980;19.776;2023-11-21T03:26:53;9.30;99.90
38428;DHT22;24211;49.980;19.776;2023-11-21T03:29:33;9.30;99.90
38428;DHT22;24211;49.980;19.776;2023-11-21T03:32:01;9.30;99.90
38428;DHT22;24211;49.980;19.776;2023-11-21T03:34:29;9.20;99.90
38428;DHT22;24211;49.980;19.776;2023-11-21T03:36:56;9.20;99.90
38428;DHT22;24211;49.980;19.776;2023-11-21T03:39:39;9.20;99.90
38428;DHT22;24211;49.980;19.776;2023-11-21T03:42:07;9.20;99.90
38428;DHT22;24211;49.980;19.776;2023-11-21T03:44:44;9.20;99.90
38428;DHT22;24211;49.980;19.776;2023-11-21T03:47:13;9.20;99.90
38428;DHT22;24211;49.980;19.776;2023-11-21T03:49:42;9.20;99.90
38428;DHT22;24211;49.980;19.776;2023-11-21T03:52:15;9.30;99.90
38428;DHT22;24211;49.980;19.776;2023-11-21T03:54:43;9.20;99.90
38428;DHT22;24211;49.980;19.776;2023-11-21T03:57:11;9.20;99.90
38428;DHT22;24211;49.980;19.776;2023-11-21T03:59:42;9.20;99.90
38428;DHT22;24211;49.980;19.776;2023-11-21T04:02:10;9.20;99.90
38428;DHT22;24211;49.980;19.776;2023-11-21T04:04:39;9.30;99.90
38428;DHT22;24211;49.980;19.776;2023-11-21T04:07:24;9.30;99.90
38428;DHT22;24211;49.980;19.776;2023-11-21T04:09:52;9.30;99.90
38428;DHT22;24211;49.980;19.776;2023-11-21T04:12:28;9.30;99.90
38428;DHT22;24211;49.980;19.776;2023-11-21T04:14:55;9.30;99.90
38428;DHT22;24211;49.980;19.776;2023-11-21T04:17:22;9.30;99.90
38428;DHT22;24211;49.980;19.776;2023-11-21T04:19:51;9.30;99.90
38428;DHT22;24211;49.980;19.776;2023-11-21T04:22:19;9.30;99.90
38428;DHT22;24211;49.980;19.776;2023-11-21T04:25:15;9.30;99.90
38428;DHT22;24211;49.980;19.776;2023-11-21T04:27:50;9.20;99.90
38428;DHT22;24211;49.980;19.776;2023-11-21T04:30:22;9.20;99.90
38428;DHT22;24211;49.980;19.776;2023-11-21T04:33:14;9.20;99.90
38428;DHT22;24211;49.980;19.776;2023-11-21T04:35:42;9.20;99.90
38428;DHT22;24211;49.980;19.776;2023-11-21T04:38:14;9.10;99.90
38428;DHT22;24211;49.980;19.776;2023-11-21T04:40:42;9.10;99.90
38428;DHT22;24211;49.980;19.776;2023-11-21T04:43:09;9.10;99.90
38428;DHT22;24211;49.980;19.776;2023-11-21T04:45:36;9.10;99.90
38428;DHT22;24211;49.980;19.776;2023-11-21T04:48:04;9.10;99.90
38428;DHT22;24211;49.980;19.776;2023-11-21T04:50:34;9.00;99.90
38428;DHT22;24211;49.980;19.776;2023-11-21T04:53:03;9.10;99.90
38428;DHT22;24211;49.980;19.776;2023-11-21T04:55:30;9.00;99.90
38428;DHT22;24211;49.980;19.776;2023-11-21T04:57:57;9.00;99.90
38428;DHT22;24211;49.980;19.776;2023-11-21T05:00:25;9.00;99.90
38428;DHT22;24211;49.980;19.776;2023-11-21T05:02:53;9.00;99.90
38428;DHT22;24211;49.980;19.776;2023-11-21T05:05:21;8.90;99.90
38428;DHT22;24211;49.980;19.776;2023-11-21T05:07:49;8.90;99.90
38428;DHT22;24211;49.980;19.776;2023-11-21T05:10:16;9.00;99.90
38428;DHT22;24211;49.980;19.776;2023-11-21T05:12:44;8.90;99.90
38428;DHT22;24211;49.980;19.776;2023-11-21T05:15:14;9.00;99.90
38428;DHT22;24211;49.980;19.776;2023-11-21T05:17:43;9.00;99.90
38428;DHT22;24211;49.980;19.776;2023-11-21T05:20:20;9.10;99.90
38428;DHT22;24211;49.980;19.776;2023-11-21T05:22:48;9.10;99.90
38428;DHT22;24211;49.980;19.776;2023-11-21T05:25:16;9.20;99.90
38428;DHT22;24211;49.980;19.776;2023-11-21T05:27:47;9.20;99.90
38428;DHT22;24211;49.980;19.776;2023-11-21T05:30:20;9.20;99.90
38428;DHT22;24211;49.980;19.776;2023-11-21T05:32:48;9.20;99.90
38428;DHT22;24211;49.980;19.776;2023-11-21T05:35:17;9.20;99.90
38428;DHT22;24211;49.980;19.776;2023-11-21T05:37:54;9.20;99.90
38428;DHT22;24211;49.980;19.776;2023-11-21T05:40:25;9.20;99.90
38428;DHT22;24211;49.980;19.776;2023-11-21T05:42:59;9.20;99.90
38428;DHT22;24211;49.980;19.776;2023-11-21T05:45:26;9.30;99.90
38428;DHT22;24211;49.980;19.776;2023-11-21T05:47:57;9.20;99.90
38428;DHT22;24211;49.980;19.776;2023-11-21T05:50:29;9.30;99.90
38428;DHT22;24211;49.980;19.776;2023-11-21T05:52:57;9.30;99.90
38428;DHT22;24211;49.980;19.776;2023-11-21T05:55:27;9.30;99.90
38428;DHT22;24211;49.980;19.776;2023-11-21T05:57:54;9.40;99.90
38428;DHT22;24211;49.980;19.776;2023-11-21T06:00:22;9.30;99.90
38428;DHT22;24211;49.980;19.776;2023-11-21T06:02:49;9.30;99.90
38428;DHT22;24211;49.980;19.776;2023-11-21T06:05:19;9.30;99.90
38428;DHT22;24211;49.980;19.776;2023-11-21T06:10:40;9.30;99.90
38428;DHT22;24211;49.980;19.776;2023-11-21T06:13:07;9.30;99.90
38428;DHT22;24211;49.980;19.776;2023-11-21T06:15:34;9.30;99.90
38428;DHT22;24211;49.980;19.776;2023-11-21T06:18:02;9.30;99.90
38428;DHT22;24211;49.980;19.776;2023-11-21T06:20:47;9.30;99.90
38428;DHT22;24211;49.980;19.776;2023-11-21T06:23:18;9.30;99.90
38428;DHT22;24211;49.980;19.776;2023-11-21T06:25:45;9.30;99.90
38428;DHT22;24211;49.980;19.776;2023-11-21T06:28:12;9.30;99.90
38428;DHT22;24211;49.980;19.776;2023-11-21T06:30:39;9.30;99.90
38428;DHT22;24211;49.980;19.776;2023-11-21T06:33:07;9.30;99.90
38428;DHT22;24211;49.980;19.776;2023-11-21T06:35:52;9.30;99.90
38428;DHT22;24211;49.980;19.776;2023-11-21T06:38:20;9.20;99.90
38428;DHT22;24211;49.980;19.776;2023-11-21T06:40:47;9.30;99.90
38428;DHT22;24211;49.980;19.776;2023-11-21T06:43:20;9.30;99.90
38428;DHT22;24211;49.980;19.776;2023-11-21T06:45:52;9.30;99.90
38428;DHT22;24211;49.980;19.776;2023-11-21T06:48:19;9.30;99.90
38428;DHT22;24211;49.980;19.776;2023-11-21T06:50:51;9.30;99.90
38428;DHT22;24211;49.980;19.776;2023-11-21T06:53:42;9.30;99.90
38428;DHT22;24211;49.980;19.776;2023-11-21T06:56:19;9.30;99.90
38428;DHT22;24211;49.980;19.776;2023-11-21T06:58:49;9.30;99.90
38428;DHT22;24211;49.980;19.776;2023-11-21T07:01:21;9.20;99.90
38428;DHT22;24211;49.980;19.776;2023-11-21T07:03:49;9.20;99.90
38428;DHT22;24211;49.980;19.776;2023-11-21T07:06:17;9.20;99.90
38428;DHT22;24211;49.980;19.776;2023-11-21T07:08:49;9.20;99.90
38428;DHT22;24211;49.980;19.776;2023-11-21T07:11:16;9.20;99.90
38428;DHT22;24211;49.980;19.776;2023-11-21T07:13:44;9.20;99.90
38428;DHT22;24211;49.980;19.776;2023-11-21T07:16:11;9.20;99.90
38428;DHT22;24211;49.980;19.776;2023-11-21T07:18:39;9.30;99.90
38428;DHT22;24211;49.980;19.776;2023-11-21T07:21:13;9.30;99.90
38428;DHT22;24211;49.980;19.776;2023-11-21T07:23:42;9.30;99.90
38428;DHT22;24211;49.980;19.776;2023-11-21T07:26:10;9.30;99.90
38428;DHT22;24211;49.980;19.776;2023-11-21T07:28:37;9.30;99.90
38428;DHT22;24211;49.980;19.776;2023-11-21T07:31:09;9.30;99.90
38428;DHT22;24211;49.980;19.776;2023-11-21T07:33:37;9.30;99.90
38428;DHT22;24211;49.980;19.776;2023-11-21T07:36:05;9.40;99.90
38428;DHT22;24211;49.980;19.776;2023-11-21T07:38:33;9.30;99.90
38428;DHT22;24211;49.980;19.776;2023-11-21T07:41:01;9.30;99.90
38428;DHT22;24211;49.980;19.776;2023-11-21T07:44:02;9.30;99.90
38428;DHT22;24211;49.980;19.776;2023-11-21T07:46:30;9.30;99.90
38428;DHT22;24211;49.980;19.776;2023-11-21T07:48:57;9.30;99.90
38428;DHT22;24211;49.980;19.776;2023-11-21T07:51:25;9.30;99.90
38428;DHT22;24211;49.980;19.776;2023-11-21T07:53:52;9.30;99.90
38428;DHT22;24211;49.980;19.776;2023-11-21T07:56:19;9.40;99.90
38428;DHT22;24211;49.980;19.776;2023-11-21T07:58:59;9.40;99.90
38428;DHT22;24211;49.980;19.776;2023-11-21T08:14:33;9.40;99.90
38428;DHT22;24211;49.980;19.776;2023-11-21T08:17:00;9.50;99.90
38428;DHT22;24211;49.980;19.776;2023-11-21T08:20:07;9.40;99.90
38428;DHT22;24211;49.980;19.776;2023-11-21T08:22:36;9.50;99.90
38428;DHT22;24211;49.980;19.776;2023-11-21T08:25:04;9.50;99.90
38428;DHT22;24211;49.980;19.776;2023-11-21T08:27:32;9.50;99.90
38428;DHT22;24211;49.980;19.776;2023-11-21T08:33:16;9.50;99.90
38428;DHT22;24211;49.980;19.776;2023-11-21T08:35:44;9.50;99.90
38428;DHT22;24211;49.980;19.776;2023-11-21T08:38:12;9.60;99.90
38428;DHT22;24211;49.980;19.776;2023-11-21T08:40:39;9.60;99.90
38428;DHT22;24211;49.980;19.776;2023-11-21T08:43:07;9.60;99.90
38428;DHT22;24211;49.980;19.776;2023-11-21T08:45:34;9.60;99.90
38428;DHT22;24211;49.980;19.776;2023-11-21T08:48:02;9.60;99.90
38428;DHT22;24211;49.980;19.776;2023-11-21T08:50:36;9.60;99.90
38428;DHT22;24211;49.980;19.776;2023-11-21T08:53:07;9.60;99.90
38428;DHT22;24211;49.980;19.776;2023-11-21T08:55:36;9.50;99.90
38428;DHT22;24211;49.980;19.776;2023-11-21T09:01:01;9.50;99.90
38428;DHT22;24211;49.980;19.776;2023-11-21T09:03:30;9.50;99.90
38428;DHT22;24211;49.980;19.776;2023-11-21T09:05:59;9.50;99.90
38428;DHT22;24211;49.980;19.776;2023-11-21T09:08:26;9.60;99.90
38428;DHT22;24211;49.980;19.776;2023-11-21T09:10:57;9.50;99.90
38428;DHT22;24211;49.980;19.776;2023-11-21T09:13:24;9.50;99.90
38428;DHT22;24211;49.980;19.776;2023-11-21T09:15:53;9.60;99.90
38428;DHT22;24211;49.980;19.776;2023-11-21T09:18:22;9.50;99.90
38428;DHT22;24211;49.980;19.776;2023-11-21T09:24:22;9.60;99.90
38428;DHT22;24211;49.980;19.776;2023-11-21T09:26:50;9.60;99.90
38428;DHT22;24211;49.980;19.776;2023-11-21T09:29:52;9.60;99.90
38428;DHT22;24211;49.980;19.776;2023-11-21T09:32:22;9.60;99.90
38428;DHT22;24211;49.980;19.776;2023-11-21T09:34:50;9.60;99.90
38428;DHT22;24211;49.980;19.776;2023-11-21T09:37:37;9.70;99.90
38428;DHT22;24211;49.980;19.776;2023-11-21T09:40:07;9.60;99.90
38428;DHT22;24211;49.980;19.776;2023-11-21T09:42:40;9.60;99.90
38428;DHT22;24211;49.980;19.776;2023-11-21T09:47:53;9.70;99.90
38428;DHT22;24211;49.980;19.776;2023-11-21T09:50:30;9.70;99.90
38428;DHT22;24211;49.980;19.776;2023-11-21T09:58:52;10.10;99.90
38428;DHT22;24211;49.980;19.776;2023-11-21T10:01:35;10.00;99.90
38428;DHT22;24211;49.980;19.776;2023-11-21T10:04:04;10.00;99.90
38428;DHT22;24211;49.980;19.776;2023-11-21T10:06:39;10.10;99.90
38428;DHT22;24211;49.980;19.776;2023-11-21T10:09:12;10.10;99.90
38428;DHT22;24211;49.980;19.776;2023-11-21T10:11:43;10.10;99.90
38428;DHT22;24211;49.980;19.776;2023-11-21T10:14:13;10.20;99.90
38428;DHT22;24211;49.980;19.776;2023-11-21T10:17:16;10.10;99.90
38428;DHT22;24211;49.980;19.776;2023-11-21T10:19:48;10.20;99.90
38428;DHT22;24211;49.980;19.776;2023-11-21T10:22:18;10.20;99.90
38428;DHT22;24211;49.980;19.776;2023-11-21T10:24:55;10.20;99.90
38428;DHT22;24211;49.980;19.776;2023-11-21T10:27:23;10.20;99.90
38428;DHT22;24211;49.980;19.776;2023-11-21T10:29:52;10.30;99.90
38428;DHT22;24211;49.980;19.776;2023-11-21T10:32:49;10.30;99.90
38428;DHT22;24211;49.980;19.776;2023-11-21T10:35:16;10.30;99.90
38428;DHT22;24211;49.980;19.776;2023-11-21T10:37:43;10.30;99.90
38428;DHT22;24211;49.980;19.776;2023-11-21T10:40:13;10.30;99.90
38428;DHT22;24211;49.980;19.776;2023-11-21T10:42:41;10.30;99.90
38428;DHT22;24211;49.980;19.776;2023-11-21T10:45:24;10.30;99.90
38428;DHT22;24211;49.980;19.776;2023-11-21T10:47:59;10.30;99.90
38428;DHT22;24211;49.980;19.776;2023-11-21T10:50:26;10.30;99.90
38428;DHT22;24211;49.980;19.776;2023-11-21T10:52:56;10.30;99.90
38428;DHT22;24211;49.980;19.776;2023-11-21T10:55:24;10.40;99.90
38428;DHT22;24211;49.980;19.776;2023-11-21T10:57:52;10.40;99.90
38428;DHT22;24211;49.980;19.776;2023-11-21T11:00:21;10.40;99.90
38428;DHT22;24211;49.980;19.776;2023-11-21T11:02:50;10.40;99.90
38428;DHT22;24211;49.980;19.776;2023-11-21T11:05:21;10.30;99.90
38428;DHT22;24211;49.980;19.776;2023-11-21T11:07:51;10.30;99.90
38428;DHT22;24211;49.980;19.776;2023-11-21T11:10:27;10.40;99.90
38428;DHT22;24211;49.980;19.776;2023-11-21T11:12:59;10.40;99.90
38428;DHT22;24211;49.980;19.776;2023-11-21T11:15:26;10.40;99.90
38428;DHT22;24211;49.980;19.776;2023-11-21T11:17:55;10.50;99.90
38428;DHT22;24211;49.980;19.776;2023-11-21T11:20:29;10.40;99.90
38428;DHT22;24211;49.980;19.776;2023-11-21T11:28:08;10.50;99.90
38428;DHT22;24211;49.980;19.776;2023-11-21T11:30:44;10.40;99.90
38428;DHT22;24211;49.980;19.776;2023-11-21T11:36:22;10.40;99.90
38428;DHT22;24211;49.980;19.776;2023-11-21T11:38:52;10.40;99.90
38428;DHT22;24211;49.980;19.776;2023-11-21T11:41:27;10.40;99.90
38428;DHT22;24211;49.980;19.776;2023-11-21T11:43:58;10.50;99.90
38428;DHT22;24211;49.980;19.776;2023-11-21T11:46:47;10.50;99.90
38428;DHT22;24211;49.980;19.776;2023-11-21T11:49:29;10.50;99.90
38428;DHT22;24211;49.980;19.776;2023-11-21T11:54:59;10.60;99.90
38428;DHT22;24211;49.980;19.776;2023-11-21T11:57:29;10.70;99.90
38428;DHT22;24211;49.980;19.776;2023-11-21T12:00:08;10.70;99.90
38428;DHT22;24211;49.980;19.776;2023-11-21T12:02:53;10.70;99.90
38428;DHT22;24211;49.980;19.776;2023-11-21T12:05:24;10.70;99.90
38428;DHT22;24211;49.980;19.776;2023-11-21T12:07:55;10.80;99.90
38428;DHT22;24211;49.980;19.776;2023-11-21T12:10:25;10.80;99.90
38428;DHT22;24211;49.980;19.776;2023-11-21T12:12:56;10.80;99.90
38428;DHT22;24211;49.980;19.776;2023-11-21T12:15:25;10.90;99.90
38428;DHT22;24211;49.980;19.776;2023-11-21T12:17:56;10.90;99.90
38428;DHT22;24211;49.980;19.776;2023-11-21T12:20:24;10.90;99.90
38428;DHT22;24211;49.980;19.776;2023-11-21T12:22:58;10.90;99.90
38428;DHT22;24211;49.980;19.776;2023-11-21T12:25:28;10.90;99.90
38428;DHT22;24211;49.980;19.776;2023-11-21T12:27:58;10.90;99.90
38428;DHT22;24211;49.980;19.776;2023-11-21T12:30:27;10.90;99.90
38428;DHT22;24211;49.980;19.776;2023-11-21T12:33:09;10.90;99.90
38428;DHT22;24211;49.980;19.776;2023-11-21T12:35:39;10.90;99.90
38428;DHT22;24211;49.980;19.776;2023-11-21T12:38:13;10.80;99.90
38428;DHT22;24211;49.980;19.776;2023-11-21T12:40:41;10.80;99.90
38428;DHT22;24211;49.980;19.776;2023-11-21T12:43:08;10.70;99.90
38428;DHT22;24211;49.980;19.776;2023-11-21T12:45:45;10.70;99.90
38428;DHT22;24211;49.980;19.776;2023-11-21T12:48:13;10.60;99.90
38428;DHT22;24211;49.980;19.776;2023-11-21T12:50:42;10.60;99.90
38428;DHT22;24211;49.980;19.776;2023-11-21T12:53:10;10.60;99.90
38428;DHT22;24211;49.980;19.776;2023-11-21T12:55:48;10.60;99.90
38428;DHT22;24211;49.980;19.776;2023-11-21T12:58:20;10.60;99.90
38428;DHT22;24211;49.980;19.776;2023-11-21T13:00:51;10.50;99.90
38428;DHT22;24211;49.980;19.776;2023-11-21T13:03:26;10.60;99.90
38428;DHT22;24211;49.980;19.776;2023-11-21T13:06:17;10.60;99.90
38428;DHT22;24211;49.980;19.776;2023-11-21T13:08:51;10.60;99.90
38428;DHT22;24211;49.980;19.776;2023-11-21T13:11:19;10.60;99.90
38428;DHT22;24211;49.980;19.776;2023-11-21T13:13:46;10.60;99.90
38428;DHT22;24211;49.980;19.776;2023-11-21T13:16:14;10.70;99.90
38428;DHT22;24211;49.980;19.776;2023-11-21T13:18:44;10.70;99.90
38428;DHT22;24211;49.980;19.776;2023-11-21T13:21:12;10.70;99.90
38428;DHT22;24211;49.980;19.776;2023-11-21T13:23:41;10.80;99.90
38428;DHT22;24211;49.980;19.776;2023-11-21T13:26:10;10.70;99.90
38428;DHT22;24211;49.980;19.776;2023-11-21T13:28:39;10.70;99.90
38428;DHT22;24211;49.980;19.776;2023-11-21T13:31:08;10.60;99.90
38428;DHT22;24211;49.980;19.776;2023-11-21T13:33:50;10.60;99.90
38428;DHT22;24211;49.980;19.776;2023-11-21T13:36:33;10.60;99.90
38428;DHT22;24211;49.980;19.776;2023-11-21T13:39:02;10.60;99.90
38428;DHT22;24211;49.980;19.776;2023-11-21T13:41:35;10.60;99.90
38428;DHT22;24211;49.980;19.776;2023-11-21T13:44:05;10.60;99.90
38428;DHT22;24211;49.980;19.776;2023-11-21T13:46:53;10.60;99.90
38428;DHT22;24211;49.980;19.776;2023-11-21T13:49:24;10.70;99.90
38428;DHT22;24211;49.980;19.776;2023-11-21T13:51:52;10.70;99.90
38428;DHT22;24211;49.980;19.776;2023-11-21T13:54:38;10.70;99.90
38428;DHT22;24211;49.980;19.776;2023-11-21T13:57:06;10.70;99.90
38428;DHT22;24211;49.980;19.776;2023-11-21T13:59:33;10.70;99.90
38428;DHT22;24211;49.980;19.776;2023-11-21T14:02:00;10.70;99.90
38428;DHT22;24211;49.980;19.776;2023-11-21T14:04:43;10.60;99.90
38428;DHT22;24211;49.980;19.776;2023-11-21T14:07:23;10.60;99.90
38428;DHT22;24211;49.980;19.776;2023-11-21T14:10:03;10.60;99.90
38428;DHT22;24211;49.980;19.776;2023-11-21T14:12:32;10.60;99.90
38428;DHT22;24211;49.980;19.776;2023-11-21T14:15:06;10.60;99.90
38428;DHT22;24211;49.980;19.776;2023-11-21T14:17:37;10.60;99.90
38428;DHT22;24211;49.980;19.776;2023-11-21T14:20:07;10.60;99.90
38428;DHT22;24211;49.980;19.776;2023-11-21T14:22:42;10.60;99.90
38428;DHT22;24211;49.980;19.776;2023-11-21T14:25:10;10.60;99.90
38428;DHT22;24211;49.980;19.776;2023-11-21T14:27:39;10.60;99.90
38428;DHT22;24211;49.980;19.776;2023-11-21T14:30:07;10.50;99.90
38428;DHT22;24211;49.980;19.776;2023-11-21T14:32:35;10.50;99.90
38428;DHT22;24211;49.980;19.776;2023-11-21T14:35:05;10.50;99.90
38428;DHT22;24211;49.980;19.776;2023-11-21T14:37:33;10.40;99.90
38428;DHT22;24211;49.980;19.776;2023-11-21T14:40:00;10.30;99.90
38428;DHT22;24211;49.980;19.776;2023-11-21T14:42:28;10.30;99.90
38428;DHT22;24211;49.980;19.776;2023-11-21T14:44:57;10.30;99.90
38428;DHT22;24211;49.980;19.776;2023-11-21T14:47:33;10.30;99.90
38428;DHT22;24211;49.980;19.776;2023-11-21T14:50:01;10.40;99.90
38428;DHT22;24211;49.980;19.776;2023-11-21T14:53:01;10.30;99.90
38428;DHT22;24211;49.980;19.776;2023-11-21T14:55:33;10.40;99.90
38428;DHT22;24211;49.980;19.776;2023-11-21T14:58:10;10.30;99.90
38428;DHT22;24211;49.980;19.776;2023-11-21T15:00:42;10.40;99.90
38428;DHT22;24211;49.980;19.776;2023-11-21T15:03:12;10.30;99.90
38428;DHT22;24211;49.980;19.776;2023-11-21T15:06:03;10.20;99.90
38428;DHT22;24211;49.980;19.776;2023-11-21T15:09:02;10.20;99.90
38428;DHT22;24211;49.980;19.776;2023-11-21T15:11:38;10.20;99.90
38428;DHT22;24211;49.980;19.776;2023-11-21T15:14:06;10.20;99.90
38428;DHT22;24211;49.980;19.776;2023-11-21T15:16:38;10.20;99.90
38428;DHT22;24211;49.980;19.776;2023-11-21T15:19:12;10.10;99.90
38428;DHT22;24211;49.980;19.776;2023-11-21T15:21:53;10.10;99.90
38428;DHT22;24211;49.980;19.776;2023-11-21T15:24:27;10.10;99.90
38428;DHT22;24211;49.980;19.776;2023-11-21T15:26:56;10.10;99.90
38428;DHT22;24211;49.980;19.776;2023-11-21T15:29:24;10.10;99.90
38428;DHT22;24211;49.980;19.776;2023-11-21T15:31:55;10.10;99.90
38428;DHT22;24211;49.980;19.776;2023-11-21T15:34:25;10.10;99.90
38428;DHT22;24211;49.980;19.776;2023-11-21T15:36:54;10.10;99.90
38428;DHT22;24211;49.980;19.776;2023-11-21T15:42:26;10.00;99.90
38428;DHT22;24211;49.980;19.776;2023-11-21T15:44:53;10.00;99.90
38428;DHT22;24211;49.980;19.776;2023-11-21T15:47:21;10.00;99.90
38428;DHT22;24211;49.980;19.776;2023-11-21T15:49:48;10.00;99.90
38428;DHT22;24211;49.980;19.776;2023-11-21T15:55:25;10.00;99.90
38428;DHT22;24211;49.980;19.776;2023-11-21T15:57:52;9.90;99.90
38428;DHT22;24211;49.980;19.776;2023-11-21T16:04:02;9.90;99.90
38428;DHT22;24211;49.980;19.776;2023-11-21T16:06:50;9.90;99.90
38428;DHT22;24211;49.980;19.776;2023-11-21T16:09:20;9.90;99.90
38428;DHT22;24211;49.980;19.776;2023-11-21T16:12:01;10.00;99.90
38428;DHT22;24211;49.980;19.776;2023-11-21T16:14:37;9.90;99.90
38428;DHT22;24211;49.980;19.776;2023-11-21T16:24:51;9.90;99.90
38428;DHT22;24211;49.980;19.776;2023-11-21T16:27:18;9.90;99.90
38428;DHT22;24211;49.980;19.776;2023-11-21T16:29:45;9.90;99.90
38428;DHT22;24211;49.980;19.776;2023-11-21T16:32:12;9.90;99.90
38428;DHT22;24211;49.980;19.776;2023-11-21T16:38:08;9.80;99.90
38428;DHT22;24211;49.980;19.776;2023-11-21T16:43:32;9.90;99.90
38428;DHT22;24211;49.980;19.776;2023-11-21T16:46:00;9.80;99.90
38428;DHT22;24211;49.980;19.776;2023-11-21T16:48:27;9.90;99.90
38428;DHT22;24211;49.980;19.776;2023-11-21T16:50:56;9.80;99.90
38428;DHT22;24211;49.980;19.776;2023-11-21T16:56:19;9.90;99.90
38428;DHT22;24211;49.980;19.776;2023-11-21T16:58:46;9.80;99.90
38428;DHT22;24211;49.980;19.776;2023-11-21T17:01:14;9.80;99.90
38428;DHT22;24211;49.980;19.776;2023-11-21T17:03:42;9.80;99.90